Terminal Aerodrome Forecast
Issued by NWS Wilmington, NC

Home | Current Version | Previous Version | Text Only | Print | Product List | Glossary On
Versions: 1 2 3 4 5 6 7 8 9 10 11 12
000
FTUS42 KILM 231700
TAFLBT
TAF
KLBT 231731Z 2318/2418 03011KT 6SM -RA SCT010 BKN050 OVC090
     FM232300 03011KT 6SM -RA SCT010 BKN040 OVC080
     FM241200 02013G18KT 6SM -RA BKN015 OVC035=

USA.gov is the U.S. government's official web portal to all federal, state and local government web resources and services.